Time;durP1;ratioP1;P1;durP2;ratioP2;P2;SDS_P1;SDS_P2;PMS_P1;PMS_P2;Temp;Humidity;BMP_temperature;BMP_pressure;BME280_temperature;BME280_humidity;BME280_pressure;Samples;Min_cycle;Max_cycle;Signal;HPM_P1;HPM_P2
2023/03/03 00:01:05;;;;;;;29.95;26.02;;;2.30;99.90;;;;;;5008940;28;20440;-68
2023/03/03 00:03:32;;;;;;;29.10;26.20;;;2.40;99.90;;;;;;5009447;28;20421;-68
2023/03/03 00:06:00;;;;;;;29.75;26.55;;;2.40;99.90;;;;;;5009626;28;20416;-68
2023/03/03 00:08:28;;;;;;;30.90;27.70;;;2.30;99.90;;;;;;5008920;28;20516;-69
2023/03/03 00:10:55;;;;;;;30.30;27.27;;;2.30;99.90;;;;;;5009636;28;20421;-68
2023/03/03 00:13:25;;;;;;;29.55;26.42;;;2.30;99.90;;;;;;5008801;28;20796;-68
2023/03/03 00:15:53;;;;;;;29.85;26.85;;;2.30;99.90;;;;;;5009002;28;20416;-68
2023/03/03 00:18:25;;;;;;;30.52;27.33;;;2.30;99.90;;;;;;5010030;28;20547;-68
2023/03/03 00:20:54;;;;;;;30.63;27.42;;;2.30;99.90;;;;;;5010621;28;20432;-68
2023/03/03 00:23:30;;;;;;;30.70;27.35;;;2.20;99.90;;;;;;5009673;28;20424;-68
2023/03/03 00:25:59;;;;;;;31.13;27.20;;;2.20;99.90;;;;;;5008017;28;20421;-69
2023/03/03 00:28:30;;;;;;;30.05;26.95;;;2.10;99.90;;;;;;5007114;28;20827;-69
2023/03/03 00:30:58;;;;;;;30.65;26.95;;;2.10;99.90;;;;;;5007830;28;20424;-68
2023/03/03 00:33:31;;;;;;;31.65;27.77;;;2.00;99.90;;;;;;5007001;28;20491;-68
2023/03/03 00:36:10;;;;;;;31.10;27.90;;;2.00;99.90;;;;;;5008002;28;20491;-69
2023/03/03 00:38:37;;;;;;;31.10;27.80;;;1.90;99.90;;;;;;5008918;28;20412;-68
2023/03/03 00:41:11;;;;;;;31.10;27.80;;;1.80;99.90;;;;;;5007599;28;20484;-72
2023/03/03 00:43:39;;;;;;;31.95;28.52;;;1.80;99.90;;;;;;4998874;28;20422;-69
2023/03/03 00:46:08;;;;;;;33.00;29.50;;;1.80;99.90;;;;;;4987322;28;20429;-68
2023/03/03 00:48:42;;;;;;;32.75;29.08;;;1.80;99.90;;;;;;4989565;28;20430;-68
2023/03/03 00:51:24;;;;;;;32.10;28.63;;;1.80;99.90;;;;;;4988527;28;20458;-69
2023/03/03 00:53:51;;;;;;;32.72;29.30;;;1.70;99.90;;;;;;4987512;28;20813;-68
2023/03/03 00:56:18;;;;;;;33.13;29.52;;;1.70;99.90;;;;;;4988624;28;20426;-69
2023/03/03 00:58:46;;;;;;;34.60;30.85;;;1.50;99.90;;;;;;4987331;28;20623;-69
2023/03/03 01:01:14;;;;;;;33.90;30.38;;;1.50;99.90;;;;;;4987946;28;20430;-68
2023/03/03 01:03:41;;;;;;;34.60;30.80;;;1.50;99.90;;;;;;4986031;28;20912;-69
2023/03/03 01:06:08;;;;;;;33.85;30.25;;;1.40;99.90;;;;;;5004753;28;20417;-68
2023/03/03 01:08:34;;;;;;;33.63;30.10;;;1.30;99.90;;;;;;5007858;28;20420;-69
2023/03/03 01:11:06;;;;;;;34.67;31.08;;;1.30;99.90;;;;;;5008495;28;20926;-69
2023/03/03 01:13:35;;;;;;;34.55;30.85;;;1.30;99.90;;;;;;5006754;28;20420;-69
2023/03/03 01:16:04;;;;;;;33.90;30.40;;;1.30;99.90;;;;;;5008383;28;20420;-68
2023/03/03 01:18:31;;;;;;;34.25;30.50;;;1.30;99.90;;;;;;5008038;28;20413;-69
2023/03/03 01:20:58;;;;;;;35.50;31.13;;;1.30;99.90;;;;;;5009609;28;20536;-69
2023/03/03 01:23:25;;;;;;;36.58;32.20;;;1.30;99.90;;;;;;5006737;28;20857;-68
2023/03/03 01:25:51;;;;;;;36.75;31.70;;;1.30;99.90;;;;;;5007116;28;20662;-69
2023/03/03 01:28:18;;;;;;;36.05;32.15;;;1.40;99.90;;;;;;5007040;28;20420;-69
2023/03/03 01:30:45;;;;;;;35.60;31.77;;;1.30;99.90;;;;;;5005993;28;20432;-69
2023/03/03 01:33:13;;;;;;;37.00;32.80;;;1.30;99.90;;;;;;5006644;28;20435;-69
2023/03/03 01:35:44;;;;;;;35.15;31.27;;;1.30;99.90;;;;;;5006625;28;20868;-69
2023/03/03 01:38:10;;;;;;;36.00;32.10;;;1.30;99.90;;;;;;5007424;28;20516;-68
2023/03/03 01:40:37;;;;;;;37.53;32.53;;;1.30;99.90;;;;;;5009205;28;20419;-69
2023/03/03 01:43:04;;;;;;;34.03;30.00;;;1.20;99.90;;;;;;5007073;28;20895;-68
2023/03/03 01:45:41;;;;;;;35.90;32.00;;;1.20;99.90;;;;;;5008948;28;20413;-69
2023/03/03 01:48:13;;;;;;;37.08;32.67;;;1.10;99.90;;;;;;5010478;28;20927;-70
2023/03/03 01:50:48;;;;;;;38.10;33.85;;;1.10;99.90;;;;;;5010589;28;20435;-69
2023/03/03 01:53:19;;;;;;;38.70;34.22;;;1.10;99.90;;;;;;5010106;28;20408;-69
2023/03/03 01:55:47;;;;;;;39.75;34.65;;;1.10;99.90;;;;;;5009097;28;20443;-69
2023/03/03 01:58:18;;;;;;;40.10;34.55;;;1.10;99.90;;;;;;5005265;28;20918;-69
2023/03/03 02:00:50;;;;;;;37.55;32.47;;;1.10;99.90;;;;;;5007161;28;20912;-67
2023/03/03 02:03:18;;;;;;;38.55;33.95;;;1.00;99.90;;;;;;5019650;28;20435;-67
2023/03/03 02:05:46;;;;;;;37.42;32.97;;;0.90;99.90;;;;;;5016557;28;20428;-68
2023/03/03 02:08:18;;;;;;;39.20;34.63;;;0.90;99.90;;;;;;5015093;28;20430;-67
2023/03/03 02:10:47;;;;;;;38.78;33.03;;;0.90;99.90;;;;;;5006984;28;20483;-69
2023/03/03 02:13:14;;;;;;;39.45;34.70;;;0.90;99.90;;;;;;5005903;28;20508;-69
2023/03/03 02:15:41;;;;;;;40.95;33.70;;;0.90;99.90;;;;;;5006195;28;20680;-69
2023/03/03 02:18:11;;;;;;;39.72;33.05;;;0.90;99.90;;;;;;5010728;28;21139;-69
2023/03/03 02:20:52;;;;;;;38.72;33.00;;;0.90;99.90;;;;;;5010906;28;20416;-68
2023/03/03 02:23:24;;;;;;;39.53;32.67;;;0.80;99.90;;;;;;5010916;28;20431;-67
2023/03/03 02:26:05;;;;;;;38.47;34.28;;;0.90;99.90;;;;;;5012929;28;20417;-68
2023/03/03 02:28:34;;;;;;;39.53;33.60;;;0.80;99.90;;;;;;5011335;28;20417;-72
2023/03/03 02:31:02;;;;;;;40.45;34.08;;;0.70;99.90;;;;;;5009831;28;20436;-68
2023/03/03 02:33:29;;;;;;;39.97;33.75;;;0.70;99.90;;;;;;5010209;28;20439;-69
2023/03/03 02:35:56;;;;;;;42.55;34.30;;;0.70;99.90;;;;;;5013336;28;20740;-70
2023/03/03 02:38:29;;;;;;;42.67;35.30;;;0.70;99.90;;;;;;5013665;28;20495;-71
2023/03/03 02:41:04;;;;;;;39.42;32.85;;;0.70;99.90;;;;;;5016650;28;20417;-67
2023/03/03 02:43:39;;;;;;;43.08;34.55;;;0.60;99.90;;;;;;5008752;28;20434;-69
2023/03/03 02:46:06;;;;;;;42.58;34.38;;;0.60;99.90;;;;;;4994737;28;20422;-69
2023/03/03 02:48:33;;;;;;;42.22;34.03;;;0.60;99.90;;;;;;4993483;28;20419;-70
2023/03/03 02:51:00;;;;;;;45.65;36.75;;;0.50;99.90;;;;;;4993572;28;20517;-68
2023/03/03 02:53:27;;;;;;;41.57;35.20;;;0.50;99.90;;;;;;4993080;28;20801;-68
2023/03/03 02:55:53;;;;;;;43.03;36.55;;;0.50;99.90;;;;;;4992597;28;20418;-68
2023/03/03 02:58:20;;;;;;;44.90;36.08;;;0.40;99.90;;;;;;4991503;28;20428;-68
2023/03/03 03:00:48;;;;;;;42.92;34.85;;;0.40;99.90;;;;;;4991294;28;20421;-68
2023/03/03 03:03:15;;;;;;;44.60;36.40;;;0.40;99.90;;;;;;4990030;28;20422;-68
2023/03/03 03:05:42;;;;;;;40.25;34.72;;;0.50;99.90;;;;;;5001520;28;20420;-69
2023/03/03 03:08:08;;;;;;;45.22;35.95;;;0.40;99.90;;;;;;5009939;28;20413;-68
2023/03/03 03:10:35;;;;;;;41.40;35.08;;;0.40;99.90;;;;;;5025128;23;20452;-68
2023/03/03 03:13:02;;;;;;;42.15;34.15;;;0.50;99.90;;;;;;5007708;28;20432;-70
2023/03/03 03:15:29;;;;;;;42.13;33.60;;;0.50;99.90;;;;;;5008891;28;20416;-70
2023/03/03 03:17:57;;;;;;;41.78;36.05;;;0.40;99.90;;;;;;5009389;28;20429;-69
2023/03/03 03:20:24;;;;;;;41.85;34.63;;;0.40;99.90;;;;;;5010860;28;20413;-68
2023/03/03 03:22:50;;;;;;;40.75;34.42;;;0.40;99.90;;;;;;5010154;28;20902;-70
2023/03/03 03:25:17;;;;;;;40.03;33.63;;;0.40;99.90;;;;;;5009889;28;20920;-70
2023/03/03 03:27:44;;;;;;;41.30;33.60;;;0.50;99.90;;;;;;5010720;28;20791;-70
2023/03/03 03:30:12;;;;;;;39.05;33.25;;;0.60;99.90;;;;;;5010800;28;20443;-67
2023/03/03 03:32:38;;;;;;;41.67;34.40;;;0.70;99.90;;;;;;5009498;28;20905;-71
2023/03/03 03:35:07;;;;;;;39.15;32.25;;;0.70;99.90;;;;;;5010956;28;20421;-71
2023/03/03 03:37:34;;;;;;;40.70;34.15;;;0.70;99.90;;;;;;5011065;28;20439;-70
2023/03/03 03:40:01;;;;;;;39.80;33.23;;;0.80;99.90;;;;;;5010929;28;20419;-70
2023/03/03 03:42:28;;;;;;;38.95;33.22;;;0.70;99.90;;;;;;5010157;28;21150;-70
2023/03/03 03:44:54;;;;;;;41.55;33.95;;;0.60;99.90;;;;;;4992425;28;20429;-70
2023/03/03 03:47:21;;;;;;;40.33;32.72;;;0.60;99.90;;;;;;4990179;28;20421;-69
2023/03/03 03:49:48;;;;;;;40.25;34.58;;;0.50;99.90;;;;;;4990158;28;20810;-70
2023/03/03 03:52:16;;;;;;;38.22;30.52;;;0.60;99.90;;;;;;4990181;28;20422;-70
2023/03/03 03:54:43;;;;;;;43.33;33.53;;;0.60;99.90;;;;;;4990922;28;20422;-70
2023/03/03 03:57:09;;;;;;;40.70;31.65;;;0.70;99.90;;;;;;5009872;28;20425;-70
2023/03/03 03:59:36;;;;;;;42.50;34.65;;;0.70;99.90;;;;;;5010097;28;20892;-70
2023/03/03 04:02:03;;;;;;;38.38;32.70;;;0.70;99.90;;;;;;5005851;28;20435;-69
2023/03/03 04:04:30;;;;;;;37.90;30.20;;;0.80;99.90;;;;;;5011944;28;20421;-69
2023/03/03 04:06:56;;;;;;;40.83;31.95;;;0.90;99.90;;;;;;5012579;28;20424;-69
2023/03/03 04:09:24;;;;;;;37.78;31.50;;;0.90;99.90;;;;;;5011977;28;20431;-70
2023/03/03 04:11:51;;;;;;;34.95;30.05;;;0.90;99.90;;;;;;5011088;28;20471;-70
2023/03/03 04:14:18;;;;;;;37.70;31.63;;;1.00;99.90;;;;;;5009941;28;20780;-69
2023/03/03 04:16:45;;;;;;;36.80;31.00;;;1.00;99.90;;;;;;5008276;28;20425;-71
2023/03/03 04:19:11;;;;;;;36.80;32.80;;;1.10;99.90;;;;;;5008799;28;20415;-70
2023/03/03 04:21:38;;;;;;;35.95;32.03;;;1.10;99.90;;;;;;5010140;28;20408;-70
2023/03/03 04:24:05;;;;;;;36.10;30.10;;;1.10;99.90;;;;;;5008703;28;20424;-70
2023/03/03 04:26:34;;;;;;;33.40;28.52;;;1.20;99.90;;;;;;5009923;28;20447;-70
2023/03/03 04:29:01;;;;;;;33.95;29.63;;;1.20;99.90;;;;;;5006578;28;20436;-70
2023/03/03 04:31:28;;;;;;;32.55;28.00;;;1.20;99.90;;;;;;5004612;28;20433;-69
2023/03/03 04:33:54;;;;;;;32.80;28.98;;;1.30;99.90;;;;;;5004142;28;20437;-70
2023/03/03 04:36:21;;;;;;;33.80;27.40;;;1.20;99.90;;;;;;5005062;28;20436;-70
2023/03/03 04:38:48;;;;;;;33.30;28.30;;;1.10;99.90;;;;;;5002831;28;21037;-71
2023/03/03 04:41:16;;;;;;;32.30;27.73;;;1.20;99.90;;;;;;5002728;28;20941;-69
2023/03/03 04:43:44;;;;;;;31.98;27.25;;;1.20;99.90;;;;;;5003063;28;20437;-70
2023/03/03 04:46:10;;;;;;;31.35;27.17;;;1.30;99.90;;;;;;5004964;28;20432;-71
2023/03/03 04:48:38;;;;;;;31.20;26.00;;;1.30;99.90;;;;;;5004338;28;20807;-69
2023/03/03 04:51:05;;;;;;;29.80;26.33;;;1.30;99.90;;;;;;5001475;28;20526;-70
2023/03/03 04:53:32;;;;;;;30.65;26.13;;;1.30;99.90;;;;;;5001691;28;20426;-70
2023/03/03 04:55:58;;;;;;;31.95;27.65;;;1.40;99.90;;;;;;5003652;28;20436;-71
2023/03/03 04:58:25;;;;;;;30.70;26.15;;;1.50;99.90;;;;;;5001493;28;20429;-70
2023/03/03 05:00:56;;;;;;;31.10;26.63;;;1.50;99.90;;;;;;5000601;28;20421;-70
2023/03/03 05:03:25;;;;;;;31.75;26.48;;;1.50;99.90;;;;;;5007517;28;20440;-69
2023/03/03 05:05:52;;;;;;;28.73;25.30;;;1.60;99.90;;;;;;5008980;28;20423;-70
2023/03/03 05:08:19;;;;;;;30.83;26.40;;;1.60;99.90;;;;;;4999440;28;20515;-71
2023/03/03 05:10:46;;;;;;;32.60;28.45;;;1.60;99.90;;;;;;5005153;28;20784;-71
2023/03/03 05:13:14;;;;;;;34.35;30.10;;;1.60;99.90;;;;;;4994738;28;20438;-70
2023/03/03 05:15:40;;;;;;;35.45;30.63;;;1.50;99.90;;;;;;4994099;28;20751;-69
2023/03/03 05:18:10;;;;;;;35.25;31.38;;;1.50;99.90;;;;;;5005698;28;20520;-71
2023/03/03 05:20:39;;;;;;;34.55;29.40;;;1.50;99.90;;;;;;4995074;28;20430;-70
2023/03/03 05:23:06;;;;;;;33.08;27.45;;;1.50;99.90;;;;;;4988446;28;20411;-71
2023/03/03 05:25:33;;;;;;;32.37;28.60;;;1.60;99.90;;;;;;4989305;28;20547;-70
2023/03/03 05:27:59;;;;;;;30.73;26.50;;;1.60;99.90;;;;;;4988548;28;20433;-68
2023/03/03 05:30:26;;;;;;;30.88;26.85;;;1.50;99.90;;;;;;4988841;28;20434;-70
2023/03/03 05:32:53;;;;;;;29.08;24.98;;;1.50;99.90;;;;;;4990697;28;20451;-69
2023/03/03 05:35:22;;;;;;;30.17;26.55;;;1.50;99.90;;;;;;5007124;28;20425;-68
2023/03/03 05:37:48;;;;;;;30.75;26.38;;;1.50;99.90;;;;;;4988977;28;20437;-71
2023/03/03 05:40:16;;;;;;;31.88;27.92;;;1.50;99.90;;;;;;5005940;28;20427;-70
2023/03/03 05:42:43;;;;;;;31.80;26.85;;;1.50;99.90;;;;;;5006806;28;20456;-70
2023/03/03 05:45:11;;;;;;;31.90;26.67;;;1.50;99.90;;;;;;4993590;28;20418;-70
2023/03/03 05:47:38;;;;;;;30.60;26.38;;;1.50;99.90;;;;;;4995996;28;20419;-69
2023/03/03 05:50:05;;;;;;;31.85;26.90;;;1.50;99.90;;;;;;4996728;28;20464;-72
2023/03/03 05:52:33;;;;;;;31.20;25.80;;;1.50;99.90;;;;;;4995744;28;20421;-68
2023/03/03 05:55:00;;;;;;;30.45;27.15;;;1.60;99.90;;;;;;5006245;28;20954;-68
2023/03/03 05:57:27;;;;;;;32.15;28.27;;;1.60;99.90;;;;;;5002347;28;20458;-69
2023/03/03 05:59:54;;;;;;;35.13;28.67;;;1.60;99.90;;;;;;4999116;28;20801;-71
2023/03/03 06:02:20;;;;;;;33.78;30.10;;;1.60;99.90;;;;;;5001386;28;20449;-70
2023/03/03 06:04:47;;;;;;;34.80;30.73;;;1.60;99.90;;;;;;5002037;28;20555;-68
2023/03/03 06:07:14;;;;;;;32.40;27.38;;;1.60;99.90;;;;;;4996596;28;20895;-67
2023/03/03 06:09:42;;;;;;;36.30;31.27;;;1.70;99.90;;;;;;4993912;28;20469;-66
2023/03/03 06:12:09;;;;;;;36.95;32.38;;;1.70;99.90;;;;;;5007344;28;20945;-67
2023/03/03 06:14:36;;;;;;;33.67;28.77;;;1.70;99.90;;;;;;5007778;28;20509;-69
2023/03/03 06:17:02;;;;;;;31.00;27.38;;;1.70;99.90;;;;;;5007070;28;20416;-68
2023/03/03 06:19:29;;;;;;;29.80;24.97;;;1.70;99.90;;;;;;4997619;28;20505;-67
2023/03/03 06:21:56;;;;;;;28.50;24.23;;;1.70;99.90;;;;;;4999382;28;20448;-69
2023/03/03 06:24:24;;;;;;;27.02;23.85;;;1.70;99.90;;;;;;5016480;28;20426;-68
2023/03/03 06:26:52;;;;;;;30.40;25.00;;;1.60;99.90;;;;;;5004392;28;20422;-70
2023/03/03 06:29:19;;;;;;;31.98;28.48;;;1.70;99.90;;;;;;5007116;28;20438;-69
2023/03/03 06:31:45;;;;;;;31.50;28.20;;;1.70;99.90;;;;;;5002968;28;20434;-68
2023/03/03 06:34:12;;;;;;;32.40;27.90;;;1.70;99.90;;;;;;4990191;28;20426;-69
2023/03/03 06:36:39;;;;;;;29.60;26.35;;;1.70;99.90;;;;;;5002426;28;20433;-68
2023/03/03 06:39:07;;;;;;;30.30;26.75;;;1.70;99.90;;;;;;5004538;28;20427;-69
2023/03/03 06:41:34;;;;;;;33.15;28.92;;;1.70;99.90;;;;;;4991537;28;20423;-70
2023/03/03 06:44:02;;;;;;;31.48;28.00;;;1.80;99.90;;;;;;5002482;28;21564;-69
2023/03/03 06:46:29;;;;;;;34.53;29.00;;;1.80;99.90;;;;;;5001544;28;20533;-69
2023/03/03 06:48:56;;;;;;;33.42;29.23;;;1.80;99.90;;;;;;5006599;28;20430;-69
2023/03/03 06:51:27;;;;;;;31.87;27.70;;;1.80;99.90;;;;;;4999981;28;20454;-70
2023/03/03 06:53:56;;;;;;;32.95;27.05;;;1.80;99.90;;;;;;5010143;28;20784;-69
2023/03/03 06:56:24;;;;;;;32.80;28.67;;;1.80;99.90;;;;;;5001492;28;20527;-69
2023/03/03 06:58:54;;;;;;;32.25;28.75;;;1.90;99.90;;;;;;5005321;28;20423;-70
2023/03/03 17:52:43;;;;;;;45.90;34.10;;;3.00;96.80;;;;;;5350543;23;20509;-73
2023/03/03 17:55:35;;;;;;;48.45;36.25;;;3.00;97.30;;;;;;4904668;29;20455;-67
2023/03/03 17:58:31;;;;;;;46.08;36.25;;;3.00;97.70;;;;;;4907753;29;20429;-67
2023/03/03 18:01:08;;;;;;;46.20;36.67;;;2.90;97.80;;;;;;4901780;29;20443;-72
2023/03/03 18:04:11;;;;;;;48.08;38.08;;;2.80;98.20;;;;;;4890032;29;20439;-67
2023/03/03 18:07:09;;;;;;;51.65;38.75;;;2.80;98.50;;;;;;4915808;23;20454;-71
2023/03/03 18:09:49;;;;;;;51.88;39.42;;;2.80;98.80;;;;;;4890620;29;20471;-72
2023/03/03 18:12:30;;;;;;;51.35;39.40;;;2.80;98.70;;;;;;4891373;29;20502;-72
2023/03/03 18:15:20;;;;;;;52.33;39.78;;;2.70;99.10;;;;;;4888909;29;20435;-72
2023/03/03 18:18:04;;;;;;;52.53;41.70;;;2.60;99.10;;;;;;4877635;29;20497;-68
2023/03/03 18:20:55;;;;;;;52.60;41.45;;;2.60;99.40;;;;;;4883269;29;20476;-69
2023/03/03 18:23:38;;;;;;;52.88;41.03;;;2.60;99.60;;;;;;4873969;29;20498;-70
2023/03/03 18:26:33;;;;;;;53.38;41.55;;;2.60;99.60;;;;;;4879339;29;20521;-70
2023/03/03 18:29:20;;;;;;;55.83;43.42;;;2.50;99.90;;;;;;4866309;29;20454;-69
2023/03/03 18:31:59;;;;;;;58.80;43.45;;;2.50;99.90;;;;;;4868771;29;20552;-69
2023/03/03 18:34:44;;;;;;;53.13;41.65;;;2.50;99.90;;;;;;4877180;29;20570;-69
2023/03/03 18:37:37;;;;;;;59.85;44.50;;;2.40;99.90;;;;;;4874694;29;20973;-68
2023/03/03 18:40:29;;;;;;;55.92;42.28;;;2.40;99.90;;;;;;4880794;29;20440;-69
2023/03/03 18:42:57;;;;;;;55.17;42.60;;;2.40;99.90;;;;;;4875765;29;20423;-69
2023/03/03 18:45:49;;;;;;;55.83;44.28;;;2.30;99.90;;;;;;4876986;29;20452;-68
2023/03/03 18:48:18;;;;;;;58.40;42.30;;;2.30;99.90;;;;;;4875770;29;20434;-68
2023/03/03 18:50:47;;;;;;;58.75;43.85;;;2.30;99.90;;;;;;4876086;29;20548;-67
2023/03/03 18:53:21;;;;;;;58.80;44.78;;;2.30;99.90;;;;;;4881381;29;20440;-69
2023/03/03 18:55:50;;;;;;;59.08;44.45;;;2.20;99.90;;;;;;4865977;29;20439;-68
2023/03/03 18:58:43;;;;;;;61.00;44.65;;;2.20;99.90;;;;;;4883779;29;20443;-69
2023/03/03 19:01:42;;;;;;;60.80;44.80;;;2.10;99.90;;;;;;4875116;29;20449;-68
2023/03/03 19:04:23;;;;;;;56.83;43.72;;;2.10;99.90;;;;;;4868523;29;20432;-68
2023/03/03 19:07:14;;;;;;;59.03;45.45;;;2.10;99.90;;;;;;4880111;29;20428;-75
2023/03/03 19:09:55;;;;;;;60.00;47.30;;;2.00;99.90;;;;;;4887390;29;20431;-73
2023/03/03 19:12:46;;;;;;;64.32;47.30;;;2.10;99.90;;;;;;4882891;29;20446;-69
2023/03/03 19:15:44;;;;;;;61.78;47.45;;;2.00;99.90;;;;;;4873474;29;20492;-77
2023/03/03 19:18:16;;;;;;;62.72;48.22;;;2.00;99.90;;;;;;4881201;29;20431;-68
2023/03/03 19:20:46;;;;;;;63.47;46.20;;;2.00;99.90;;;;;;4873159;29;20659;-69
2023/03/03 19:23:16;;;;;;;66.50;49.17;;;1.90;99.90;;;;;;4877113;29;20533;-69
2023/03/03 19:25:42;;;;;;;66.68;50.03;;;1.90;99.90;;;;;;4877912;29;20444;-69
2023/03/03 19:28:28;;;;;;;66.50;47.08;;;1.80;99.90;;;;;;4882083;29;20456;-68
2023/03/03 19:30:58;;;;;;;72.35;52.53;;;1.70;99.90;;;;;;4878371;29;20932;-68
2023/03/03 19:33:41;;;;;;;65.82;49.20;;;1.70;99.90;;;;;;4883437;29;20444;-68
2023/03/03 19:36:21;;;;;;;75.43;52.88;;;1.70;99.90;;;;;;4888781;29;20430;-67
2023/03/03 19:39:02;;;;;;;72.00;51.80;;;1.70;99.90;;;;;;4879771;29;20519;-70
2023/03/03 19:41:46;;;;;;;75.47;53.70;;;1.60;99.90;;;;;;4878400;29;20447;-69
2023/03/03 19:44:28;;;;;;;78.30;54.83;;;1.60;99.90;;;;;;4876583;29;20546;-69
2023/03/03 19:47:03;;;;;;;78.80;56.78;;;1.60;99.90;;;;;;4873932;29;20448;-68
2023/03/03 19:49:52;;;;;;;80.38;57.28;;;1.50;99.90;;;;;;4871479;29;20713;-69
2023/03/03 19:52:27;;;;;;;78.07;55.72;;;1.50;99.90;;;;;;4869107;29;20452;-69
2023/03/03 19:55:10;;;;;;;77.13;54.75;;;1.50;99.90;;;;;;4878248;29;20432;-68
2023/03/03 19:57:50;;;;;;;81.60;55.83;;;1.60;99.90;;;;;;4881149;29;20429;-68
2023/03/03 20:00:27;;;;;;;78.78;55.25;;;1.60;99.90;;;;;;4874659;29;20443;-67
2023/03/03 20:03:29;;;;;;;83.57;56.20;;;1.60;99.90;;;;;;4876876;29;20456;-68
2023/03/03 20:06:10;;;;;;;80.95;56.47;;;1.60;99.90;;;;;;4876953;29;20439;-68
2023/03/03 20:08:43;;;;;;;77.53;54.20;;;1.60;99.90;;;;;;4876526;29;20952;-68
2023/03/03 20:11:20;;;;;;;84.47;56.03;;;1.50;99.90;;;;;;4880944;29;20437;-68
2023/03/03 20:13:58;;;;;;;79.65;55.55;;;1.50;99.90;;;;;;4863809;29;20519;-67
2023/03/03 20:16:36;;;;;;;78.60;56.13;;;1.50;99.90;;;;;;4864708;29;20442;-68
2023/03/03 20:19:17;;;;;;;80.88;56.38;;;1.50;99.90;;;;;;4878661;29;20446;-69
2023/03/03 20:21:52;;;;;;;81.68;54.75;;;1.50;99.90;;;;;;4896490;29;20427;-68
2023/03/03 20:24:38;;;;;;;82.47;56.10;;;1.50;99.90;;;;;;4889414;29;20459;-66
2023/03/03 20:27:09;;;;;;;77.85;54.72;;;1.40;99.90;;;;;;4886922;29;20466;-67
2023/03/03 20:30:06;;;;;;;78.03;54.10;;;1.40;99.90;;;;;;4876746;29;20554;-68
2023/03/03 20:32:48;;;;;;;85.87;56.13;;;1.50;99.90;;;;;;4869138;29;20580;-69
2023/03/03 20:35:27;;;;;;;81.78;55.83;;;1.60;99.90;;;;;;4875907;29;20436;-69
2023/03/03 20:38:05;;;;;;;83.22;55.72;;;1.60;99.90;;;;;;4882427;29;20435;-68
2023/03/03 20:40:38;;;;;;;82.10;55.03;;;1.60;99.90;;;;;;4875259;29;20451;-71
2023/03/03 20:43:18;;;;;;;79.03;56.17;;;1.70;99.90;;;;;;4865919;29;20429;-69
2023/03/03 20:45:55;;;;;;;80.43;56.22;;;1.80;99.90;;;;;;4875516;29;20440;-69
2023/03/03 20:48:41;;;;;;;78.63;54.10;;;1.80;99.90;;;;;;4873314;29;20447;-66
2023/03/03 20:51:13;;;;;;;75.10;53.30;;;1.90;99.90;;;;;;4881919;29;20431;-68
2023/03/03 20:53:48;;;;;;;75.72;53.35;;;2.00;99.90;;;;;;4870934;29;20489;-68
2023/03/03 20:56:21;;;;;;;74.75;53.45;;;2.00;99.90;;;;;;4865333;29;20444;-68
2023/03/03 20:59:01;;;;;;;72.38;53.08;;;2.10;99.90;;;;;;4876250;29;20445;-67
2023/03/03 21:01:35;;;;;;;69.57;51.95;;;2.20;99.90;;;;;;4870923;29;20458;-67
2023/03/03 21:04:19;;;;;;;73.68;53.30;;;2.20;99.90;;;;;;4872373;29;20444;-67
2023/03/03 21:06:48;;;;;;;74.13;53.75;;;2.20;99.90;;;;;;4866920;29;20861;-68
2023/03/03 21:09:28;;;;;;;72.77;53.53;;;2.20;99.90;;;;;;4867177;29;20437;-68
2023/03/03 21:11:55;;;;;;;71.78;52.25;;;2.30;99.90;;;;;;4870522;29;20459;-68
2023/03/03 21:14:24;;;;;;;73.32;53.67;;;2.30;99.90;;;;;;4868409;29;20462;-66
2023/03/03 21:16:55;;;;;;;71.57;51.03;;;2.30;99.90;;;;;;4884264;29;20436;-68
2023/03/03 21:19:27;;;;;;;70.53;51.10;;;2.40;99.90;;;;;;4876465;29;20889;-68
2023/03/03 21:21:55;;;;;;;69.60;50.83;;;2.40;99.90;;;;;;4876099;29;20448;-68
2023/03/03 21:24:23;;;;;;;74.15;53.30;;;2.40;99.90;;;;;;4874282;29;20455;-67
2023/03/03 21:26:52;;;;;;;71.00;52.43;;;2.40;99.90;;;;;;4875012;29;20516;-68
2023/03/03 21:29:21;;;;;;;70.72;50.20;;;2.40;99.90;;;;;;4868129;29;20440;-68
2023/03/03 21:31:50;;;;;;;69.33;51.93;;;2.40;99.90;;;;;;4874519;29;20767;-68
2023/03/03 21:34:24;;;;;;;74.03;51.95;;;2.50;99.90;;;;;;4875789;29;20463;-67
2023/03/03 21:36:51;;;;;;;71.60;51.85;;;2.60;99.90;;;;;;4872465;29;20444;-68
2023/03/03 21:39:26;;;;;;;69.38;50.65;;;2.70;99.90;;;;;;4871151;29;20457;-68
2023/03/03 21:41:56;;;;;;;66.65;51.03;;;2.70;99.90;;;;;;4866977;29;20456;-68
2023/03/03 21:44:34;;;;;;;68.22;49.70;;;2.80;99.90;;;;;;4880581;29;20426;-67
2023/03/03 21:47:01;;;;;;;71.43;51.83;;;2.80;99.90;;;;;;4875603;29;20453;-68
2023/03/03 21:49:28;;;;;;;65.80;49.92;;;2.80;99.90;;;;;;4878065;29;20444;-68
2023/03/03 21:51:56;;;;;;;67.45;48.88;;;2.90;99.90;;;;;;4874644;29;20474;-65
2023/03/03 21:54:24;;;;;;;64.60;48.87;;;2.90;99.90;;;;;;4865444;29;20497;-65
2023/03/03 21:56:52;;;;;;;66.33;49.57;;;2.90;99.50;;;;;;4867665;29;20455;-68
2023/03/03 21:59:19;;;;;;;62.17;46.75;;;2.90;99.70;;;;;;4872160;29;20448;-69
2023/03/03 22:01:46;;;;;;;67.38;49.53;;;3.00;99.90;;;;;;4873633;29;20459;-68
2023/03/03 22:04:13;;;;;;;64.33;46.83;;;3.10;99.70;;;;;;4870933;29;20859;-68
2023/03/03 22:06:40;;;;;;;60.08;46.20;;;3.10;99.40;;;;;;4871558;29;20444;-68
2023/03/03 22:09:07;;;;;;;63.72;46.70;;;3.20;99.20;;;;;;4862717;29;20448;-68
2023/03/03 22:11:35;;;;;;;64.53;45.97;;;3.20;99.20;;;;;;4867060;29;20450;-69
2023/03/03 22:14:02;;;;;;;65.15;49.47;;;3.30;99.20;;;;;;4863926;29;20910;-68
2023/03/03 22:16:28;;;;;;;64.47;48.92;;;3.30;99.00;;;;;;4871067;29;20828;-69
2023/03/03 22:18:55;;;;;;;60.00;46.67;;;3.30;98.60;;;;;;4864774;29;20435;-69
2023/03/03 22:21:22;;;;;;;60.00;45.63;;;3.30;98.50;;;;;;4863245;29;20531;-68
2023/03/03 22:23:49;;;;;;;55.03;43.75;;;3.30;98.40;;;;;;4864237;29;20451;-68
2023/03/03 22:26:15;;;;;;;63.50;45.90;;;3.20;98.20;;;;;;4865299;29;20449;-66
2023/03/03 22:28:43;;;;;;;63.20;46.38;;;3.20;98.40;;;;;;4865706;29;20459;-69
2023/03/03 22:31:10;;;;;;;65.10;47.20;;;3.20;98.40;;;;;;4868614;29;20535;-68
2023/03/03 22:33:37;;;;;;;59.13;45.42;;;3.20;98.50;;;;;;4865052;29;20440;-69
2023/03/03 22:36:08;;;;;;;63.30;47.42;;;3.20;98.40;;;;;;4873347;29;20950;-69
2023/03/03 22:38:37;;;;;;;63.35;46.15;;;3.20;98.40;;;;;;4868475;29;20581;-70
2023/03/03 22:41:04;;;;;;;59.42;45.30;;;3.20;98.40;;;;;;4872440;29;20463;-67
2023/03/03 22:43:31;;;;;;;62.65;46.35;;;3.10;98.30;;;;;;4868093;29;20431;-69
2023/03/03 22:45:59;;;;;;;61.10;46.28;;;3.10;98.70;;;;;;4876383;29;20496;-69
2023/03/03 22:48:27;;;;;;;62.13;45.17;;;3.20;98.80;;;;;;4867688;29;20436;-69
2023/03/03 22:50:54;;;;;;;59.75;46.92;;;3.20;98.60;;;;;;4873881;29;20459;-67
2023/03/03 22:53:22;;;;;;;61.25;47.95;;;3.10;98.40;;;;;;4873105;29;20821;-67
2023/03/03 22:55:49;;;;;;;60.50;45.97;;;3.20;98.40;;;;;;4875384;29;20560;-69
2023/03/03 22:58:18;;;;;;;60.63;47.03;;;3.20;98.30;;;;;;4864862;29;20509;-69
2023/03/03 23:00:45;;;;;;;62.40;46.42;;;3.10;98.50;;;;;;4872801;29;20683;-68
2023/03/03 23:03:14;;;;;;;59.00;45.53;;;3.10;98.50;;;;;;4866486;29;20437;-68
2023/03/03 23:05:41;;;;;;;59.92;45.42;;;3.10;98.40;;;;;;4876657;29;20453;-69
2023/03/03 23:08:10;;;;;;;64.80;47.83;;;3.00;98.60;;;;;;4874501;29;20467;-69
2023/03/03 23:10:37;;;;;;;62.83;45.63;;;3.10;98.90;;;;;;4869451;29;20451;-68
2023/03/03 23:13:04;;;;;;;64.95;48.10;;;3.10;98.60;;;;;;4873122;29;20467;-69
2023/03/03 23:15:31;;;;;;;63.77;47.00;;;3.10;98.70;;;;;;4867014;29;20714;-68
2023/03/03 23:17:58;;;;;;;59.53;45.28;;;3.10;98.80;;;;;;4872811;29;20448;-68
2023/03/03 23:20:27;;;;;;;59.55;44.70;;;3.10;98.50;;;;;;4858506;29;20441;-69
2023/03/03 23:22:54;;;;;;;59.95;45.60;;;3.10;98.40;;;;;;4867359;29;20470;-69
2023/03/03 23:25:22;;;;;;;60.42;46.22;;;3.00;98.60;;;;;;4868961;29;20808;-68
2023/03/03 23:27:50;;;;;;;63.13;46.92;;;3.00;98.80;;;;;;4865989;29;20471;-68
2023/03/03 23:30:17;;;;;;;61.58;45.65;;;3.00;98.80;;;;;;4865526;29;20442;-69
2023/03/03 23:32:44;;;;;;;61.05;47.13;;;3.00;98.90;;;;;;4865825;29;20772;-69
2023/03/03 23:35:11;;;;;;;63.38;45.13;;;3.00;98.80;;;;;;4871303;29;20917;-68
2023/03/03 23:37:40;;;;;;;59.95;45.03;;;3.00;98.80;;;;;;4871143;29;20761;-69
2023/03/03 23:40:08;;;;;;;60.70;45.38;;;3.00;99.00;;;;;;4867116;29;20436;-69
2023/03/03 23:42:35;;;;;;;62.72;46.85;;;3.00;98.80;;;;;;4865369;29;20543;-69
2023/03/03 23:45:01;;;;;;;59.92;44.90;;;3.00;99.10;;;;;;4871609;29;20916;-69
2023/03/03 23:47:29;;;;;;;59.60;45.20;;;3.00;99.20;;;;;;4868479;29;20450;-69